createdAt,value
2023-06-23T00:02:02.795Z,20.74
2023-06-23T00:04:31.714Z,20.75
2023-06-23T00:07:00.451Z,20.70
2023-06-23T00:09:29.128Z,20.67
2023-06-23T00:11:58.344Z,20.62
2023-06-23T00:14:26.193Z,20.56
2023-06-23T00:16:53.996Z,20.53
2023-06-23T00:19:21.938Z,20.51
2023-06-23T00:21:49.697Z,20.48
2023-06-23T00:24:18.095Z,20.50
2023-06-23T00:26:46.226Z,20.54
2023-06-23T00:29:15.264Z,20.59
2023-06-23T00:31:43.216Z,20.52
2023-06-23T00:34:11.280Z,20.47
2023-06-23T00:36:39.402Z,20.42
2023-06-23T00:39:07.365Z,20.45
2023-06-23T00:41:35.411Z,20.42
2023-06-23T00:44:03.175Z,20.42
2023-06-23T00:46:35.538Z,20.35
2023-06-23T00:49:03.946Z,20.29
2023-06-23T00:51:33.021Z,20.26
2023-06-23T00:54:01.882Z,20.29
2023-06-23T00:56:31.776Z,20.39
2023-06-23T00:59:00.081Z,20.37
2023-06-23T01:01:28.326Z,20.28
2023-06-23T01:04:00.361Z,20.23
2023-06-23T01:06:38.411Z,20.28
2023-06-23T01:09:15.195Z,20.31
2023-06-23T01:11:51.027Z,20.35
2023-06-23T01:14:25.905Z,20.32
2023-06-23T01:17:00.451Z,20.30
2023-06-23T01:19:54.963Z,20.19
2023-06-23T01:22:31.839Z,20.17
2023-06-23T01:25:13.410Z,20.16
2023-06-23T01:27:54.718Z,20.17
2023-06-23T01:30:27.629Z,20.17
2023-06-23T01:33:09.134Z,20.13
2023-06-23T01:35:44.146Z,20.14
2023-06-23T01:38:19.491Z,20.14
2023-06-23T01:40:52.686Z,20.11
2023-06-23T01:43:30.330Z,20.08
2023-06-23T01:46:04.688Z,19.97
2023-06-23T01:48:37.480Z,19.97
2023-06-23T01:51:07.345Z,19.95
2023-06-23T01:53:35.462Z,19.94
2023-06-23T01:56:07.560Z,19.91
2023-06-23T01:58:39.365Z,19.88
2023-06-23T02:01:09.220Z,19.86
2023-06-23T02:03:38.136Z,19.83
2023-06-23T02:06:07.797Z,19.85
2023-06-23T02:08:38.405Z,19.90
2023-06-23T02:11:08.090Z,19.94
2023-06-23T02:13:40.707Z,19.95
2023-06-23T02:16:10.834Z,19.99
2023-06-23T02:18:42.248Z,20.08
2023-06-23T02:21:12.493Z,20.12
2023-06-23T02:23:44.963Z,20.21
2023-06-23T02:26:13.183Z,20.21
2023-06-23T02:28:50.987Z,20.16
2023-06-23T02:31:22.392Z,20.07
2023-06-23T02:33:50.534Z,19.97
2023-06-23T02:36:22.413Z,19.97
2023-06-23T02:38:51.099Z,19.96
2023-06-23T02:41:21.510Z,19.98
2023-06-23T02:43:52.797Z,19.93
2023-06-23T02:46:25.492Z,19.88
2023-06-23T02:48:57.960Z,19.79
2023-06-23T02:51:28.869Z,19.86
2023-06-23T02:54:03.496Z,19.87
2023-06-23T02:56:32.759Z,19.89
2023-06-23T02:59:04.677Z,19.91
2023-06-23T03:01:41.304Z,19.91
2023-06-23T03:04:09.210Z,19.95
2023-06-23T03:06:38.006Z,19.98
2023-06-23T03:09:07.283Z,19.91
2023-06-23T03:11:36.169Z,19.89
2023-06-23T03:14:04.676Z,19.83
2023-06-23T03:16:41.082Z,19.79
2023-06-23T03:19:19.871Z,19.77
2023-06-23T03:21:52.903Z,19.74
2023-06-23T03:24:23.723Z,19.73
2023-06-23T03:26:58.679Z,19.77
2023-06-23T03:29:29.380Z,19.73
2023-06-23T03:32:03.479Z,19.71
2023-06-23T03:34:43.034Z,19.75
2023-06-23T03:37:15.092Z,19.75
2023-06-23T03:39:45.943Z,19.70
2023-06-23T03:42:14.016Z,19.70
2023-06-23T03:44:49.332Z,19.65
2023-06-23T03:47:23.122Z,19.67
2023-06-23T03:49:55.005Z,19.71
2023-06-23T03:52:25.445Z,19.68
2023-06-23T03:54:56.776Z,19.63
2023-06-23T03:57:30.397Z,19.59
2023-06-23T04:00:00.094Z,19.58
2023-06-23T04:02:31.471Z,19.56
2023-06-23T04:05:03.230Z,19.58
2023-06-23T04:07:33.231Z,19.54
2023-06-23T04:10:06.447Z,19.56
2023-06-23T04:12:36.308Z,19.57
2023-06-23T04:15:07.790Z,19.54
2023-06-23T04:17:42.365Z,19.54
2023-06-23T04:20:14.435Z,19.57
2023-06-23T04:22:45.627Z,19.57
2023-06-23T04:25:18.759Z,19.65
2023-06-23T04:27:49.632Z,19.70
2023-06-23T04:30:20.013Z,19.76
2023-06-23T04:32:49.275Z,19.83
2023-06-23T04:35:17.317Z,19.81
2023-06-23T04:37:49.472Z,19.74
2023-06-23T04:40:27.016Z,19.68
2023-06-23T04:43:01.490Z,19.51
2023-06-23T04:45:34.655Z,19.41
2023-06-23T04:48:07.098Z,19.40
2023-06-23T04:50:37.283Z,19.30
2023-06-23T04:53:09.305Z,19.21
2023-06-23T04:55:40.651Z,19.12
2023-06-23T04:58:11.392Z,19.20
2023-06-23T05:00:41.005Z,19.17
2023-06-23T05:03:11.835Z,19.15
2023-06-23T05:05:42.510Z,19.09
2023-06-23T05:08:13.139Z,19.10
2023-06-23T05:10:41.830Z,18.92
2023-06-23T05:13:13.472Z,18.71
2023-06-23T05:15:41.333Z,18.67
2023-06-23T05:18:11.709Z,18.56
2023-06-23T05:20:41.195Z,18.55
2023-06-23T05:23:11.091Z,18.54
2023-06-23T05:25:40.206Z,18.52
2023-06-23T05:28:09.847Z,18.48
2023-06-23T05:30:38.963Z,18.39
2023-06-23T05:33:09.449Z,18.42
2023-06-23T05:35:41.788Z,18.41
2023-06-23T05:38:10.928Z,18.40
2023-06-23T05:40:38.941Z,18.44
2023-06-23T05:43:08.172Z,18.47
2023-06-23T05:45:37.639Z,18.47
2023-06-23T05:48:15.402Z,18.38
2023-06-23T05:50:47.589Z,18.37
2023-06-23T05:53:25.011Z,18.31
2023-06-23T05:56:01.353Z,18.23
2023-06-23T05:58:33.399Z,18.13
2023-06-23T06:01:06.144Z,18.00
2023-06-23T06:03:39.149Z,17.88
2023-06-23T06:06:09.721Z,17.88
2023-06-23T06:08:40.350Z,17.84
2023-06-23T06:11:10.546Z,17.90
2023-06-23T06:13:43.164Z,17.80
2023-06-23T06:16:12.174Z,17.83
2023-06-23T06:18:42.133Z,17.78
2023-06-23T06:21:13.929Z,17.68
2023-06-23T06:23:43.585Z,17.62
2023-06-23T06:26:12.682Z,17.62
2023-06-23T06:28:44.550Z,17.62
2023-06-23T06:31:13.502Z,17.58
2023-06-23T06:33:43.419Z,17.42
2023-06-23T06:36:14.103Z,17.32
2023-06-23T06:38:43.247Z,17.33
2023-06-23T06:41:11.596Z,17.28
2023-06-23T06:43:39.883Z,17.27
2023-06-23T06:46:10.837Z,17.25
2023-06-23T06:48:41.260Z,17.29
2023-06-23T06:51:10.344Z,17.31
2023-06-23T06:53:39.556Z,17.33
2023-06-23T06:56:08.307Z,17.30
2023-06-23T06:58:37.191Z,17.24
2023-06-23T07:01:05.670Z,17.31
2023-06-23T07:03:34.679Z,17.38
2023-06-23T07:06:02.593Z,17.47
2023-06-23T07:08:30.621Z,17.47
2023-06-23T07:10:59.767Z,17.48
2023-06-23T07:13:27.619Z,17.46
2023-06-23T07:15:55.799Z,17.36
2023-06-23T07:18:24.860Z,17.35
2023-06-23T07:20:53.009Z,17.43
2023-06-23T07:23:21.072Z,17.50
2023-06-23T07:25:48.946Z,17.58
2023-06-23T07:28:18.295Z,17.49
2023-06-23T07:30:46.053Z,17.53
2023-06-23T07:33:13.962Z,17.55
2023-06-23T07:35:42.024Z,17.54
2023-06-23T07:38:09.897Z,17.53
2023-06-23T07:40:37.805Z,17.54
2023-06-23T07:43:05.874Z,17.60
2023-06-23T07:45:35.051Z,17.61
2023-06-23T07:48:02.854Z,17.65
2023-06-23T07:50:30.976Z,17.64
2023-06-23T07:52:58.970Z,17.61
2023-06-23T07:55:26.780Z,17.59
2023-06-23T07:57:54.753Z,17.61
2023-06-23T08:00:24.704Z,17.68
2023-06-23T08:02:53.993Z,17.72
2023-06-23T08:05:22.808Z,17.73
2023-06-23T08:07:50.905Z,17.61
2023-06-23T08:10:18.825Z,17.70
2023-06-23T08:12:46.718Z,17.73
2023-06-23T08:15:14.564Z,17.68
2023-06-23T08:17:42.510Z,17.62
2023-06-23T08:20:13.234Z,17.69
2023-06-23T08:22:41.702Z,17.68
2023-06-23T08:25:10.048Z,17.59
2023-06-23T08:27:38.141Z,17.59
2023-06-23T08:30:08.087Z,17.60
2023-06-23T08:32:35.920Z,17.68
2023-06-23T08:35:03.907Z,17.75
2023-06-23T08:37:38.204Z,17.73
2023-06-23T08:40:07.189Z,17.70
2023-06-23T08:42:35.463Z,17.71
2023-06-23T08:45:05.025Z,17.74
2023-06-23T08:47:34.810Z,17.67
2023-06-23T08:50:03.067Z,17.70
2023-06-23T08:52:31.124Z,17.68
2023-06-23T08:55:00.409Z,17.59
2023-06-23T08:57:28.229Z,17.60
2023-06-23T08:59:56.360Z,17.61
2023-06-23T09:02:24.781Z,17.70
2023-06-23T09:04:52.727Z,17.72
2023-06-23T09:07:20.829Z,17.70
2023-06-23T09:09:49.061Z,17.68
2023-06-23T09:12:21.686Z,17.65
2023-06-23T09:14:50.443Z,17.67
2023-06-23T09:17:19.155Z,17.61
2023-06-23T09:19:50.208Z,17.65
2023-06-23T09:22:20.618Z,17.67
2023-06-23T09:24:49.204Z,17.68
2023-06-23T09:27:18.551Z,17.69
2023-06-23T09:30:01.506Z,17.71
2023-06-23T09:32:34.741Z,17.73
2023-06-23T09:35:04.437Z,17.73
2023-06-23T09:37:37.315Z,17.72
2023-06-23T09:40:07.794Z,17.71
2023-06-23T09:42:39.522Z,17.69
2023-06-23T09:45:18.850Z,17.73
2023-06-23T09:47:49.973Z,17.78
2023-06-23T09:50:19.043Z,17.78
2023-06-23T09:52:46.829Z,17.84
2023-06-23T09:55:41.394Z,17.85
2023-06-23T09:58:11.909Z,17.90
2023-06-23T10:00:39.865Z,17.91
2023-06-23T10:03:07.804Z,17.93
2023-06-23T10:05:36.804Z,17.87
2023-06-23T10:08:09.844Z,17.90
2023-06-23T10:10:47.180Z,17.96
2023-06-23T10:13:17.026Z,17.96
2023-06-23T10:15:44.854Z,17.97
2023-06-23T10:18:13.429Z,17.97
2023-06-23T10:20:42.469Z,17.94
2023-06-23T10:23:10.591Z,17.96
2023-06-23T10:25:38.894Z,17.98
2023-06-23T10:28:11.172Z,18.01
2023-06-23T10:30:42.108Z,18.04
2023-06-23T10:33:29.235Z,18.04
2023-06-23T10:36:01.467Z,18.06
2023-06-23T10:38:32.936Z,18.05
2023-06-23T10:41:02.545Z,18.07
2023-06-23T10:43:35.317Z,18.06
2023-06-23T10:46:05.745Z,18.06
2023-06-23T10:48:34.651Z,18.07
2023-06-23T10:51:29.093Z,18.13
2023-06-23T10:54:11.929Z,18.20
2023-06-23T10:56:43.023Z,18.22
2023-06-23T10:59:22.433Z,18.23
2023-06-23T11:02:13.071Z,18.28
2023-06-23T11:04:56.697Z,18.33
2023-06-23T11:07:25.564Z,18.32
2023-06-23T11:10:07.711Z,18.35
2023-06-23T11:12:43.067Z,18.35
2023-06-23T11:15:17.243Z,18.35
2023-06-23T11:17:48.007Z,18.33
2023-06-23T11:20:30.800Z,18.36
2023-06-23T11:23:01.919Z,18.36
2023-06-23T11:25:31.803Z,18.36
2023-06-23T11:28:35.988Z,18.43
2023-06-23T11:31:14.546Z,18.47
2023-06-23T11:33:47.376Z,18.48
2023-06-23T11:36:19.079Z,18.53
2023-06-23T11:38:47.666Z,18.54
2023-06-23T11:41:17.319Z,18.60
2023-06-23T11:43:46.673Z,18.67
2023-06-23T11:46:16.207Z,18.72
2023-06-23T11:48:47.613Z,18.76
2023-06-23T11:51:16.478Z,18.74
2023-06-23T11:53:44.514Z,18.76
2023-06-23T11:56:16.995Z,18.79
2023-06-23T11:58:50.815Z,18.85
2023-06-23T12:01:19.601Z,18.87
2023-06-23T12:03:49.964Z,18.91
2023-06-23T12:06:18.797Z,18.93
2023-06-23T12:08:50.868Z,18.93
2023-06-23T12:11:20.056Z,18.94
2023-06-23T12:13:48.861Z,18.94
2023-06-23T12:16:16.825Z,18.95
2023-06-23T12:18:45.620Z,18.97
2023-06-23T12:21:16.605Z,18.97
2023-06-23T12:23:45.636Z,18.97
2023-06-23T12:26:13.584Z,19.00
2023-06-23T12:28:41.649Z,19.05
2023-06-23T12:31:09.984Z,19.06
2023-06-23T12:33:41.064Z,19.08
2023-06-23T12:36:18.062Z,19.13
2023-06-23T12:38:54.935Z,19.17
2023-06-23T12:41:28.901Z,19.22
2023-06-23T12:44:01.520Z,19.31
2023-06-23T12:46:32.140Z,19.37
2023-06-23T12:49:00.245Z,19.41
2023-06-23T12:51:35.887Z,19.47
2023-06-23T12:54:04.556Z,19.50
2023-06-23T12:56:32.868Z,19.59
2023-06-23T12:59:00.746Z,19.61
2023-06-23T13:01:30.848Z,19.67
2023-06-23T13:03:58.942Z,19.73
2023-06-23T13:06:27.090Z,19.76
2023-06-23T13:08:58.550Z,19.77
2023-06-23T13:11:28.358Z,19.79
2023-06-23T13:13:56.667Z,19.78
2023-06-23T13:16:24.652Z,19.80
2023-06-23T13:18:52.564Z,19.89
2023-06-23T13:21:20.302Z,19.98
2023-06-23T13:23:48.384Z,20.07
2023-06-23T13:26:17.848Z,20.12
2023-06-23T13:28:45.732Z,20.11
2023-06-23T13:31:14.276Z,20.12
2023-06-23T13:33:42.536Z,20.10
2023-06-23T13:36:10.937Z,20.20
2023-06-23T13:38:38.825Z,20.30
2023-06-23T13:41:06.673Z,20.46
2023-06-23T13:43:38.021Z,20.58
2023-06-23T13:46:07.639Z,20.70
2023-06-23T13:48:35.501Z,20.67
2023-06-23T13:51:03.585Z,20.71
2023-06-23T13:53:31.457Z,20.71
2023-06-23T13:55:59.478Z,20.73
2023-06-23T13:58:27.548Z,20.84
2023-06-23T14:00:57.030Z,20.87
2023-06-23T14:03:24.932Z,20.87
2023-06-23T14:05:55.790Z,20.79
2023-06-23T14:08:23.957Z,20.83
2023-06-23T14:10:52.048Z,20.92
2023-06-23T14:13:19.980Z,21.04
2023-06-23T14:15:48.059Z,21.13
2023-06-23T14:18:17.461Z,21.22
2023-06-23T14:20:46.296Z,21.36
2023-06-23T14:23:14.274Z,21.56
2023-06-23T14:25:42.030Z,21.53
2023-06-23T14:28:10.033Z,21.52
2023-06-23T14:30:38.659Z,21.55
2023-06-23T14:33:07.642Z,21.61
2023-06-23T14:35:37.049Z,21.72
2023-06-23T14:38:06.698Z,21.74
2023-06-23T14:40:34.773Z,21.72
2023-06-23T14:43:03.293Z,21.82
2023-06-23T14:45:36.424Z,21.90
2023-06-23T14:48:04.882Z,22.04
2023-06-23T14:50:32.870Z,22.44
2023-06-23T14:53:02.453Z,22.43
2023-06-23T14:55:34.124Z,22.22
2023-06-23T14:58:04.380Z,22.12
2023-06-23T15:00:32.653Z,22.03
2023-06-23T15:03:00.813Z,22.48
2023-06-23T15:05:30.073Z,22.67
2023-06-23T15:07:58.207Z,22.85
2023-06-23T15:10:27.873Z,22.77
2023-06-23T15:12:55.588Z,22.60
2023-06-23T15:15:23.383Z,22.55
2023-06-23T15:17:51.287Z,22.36
2023-06-23T15:20:19.419Z,22.23
2023-06-23T15:22:47.804Z,22.09
2023-06-23T15:25:15.698Z,22.00
2023-06-23T15:27:45.612Z,21.93
2023-06-23T15:30:13.908Z,21.85
2023-06-23T15:32:42.002Z,21.79
2023-06-23T15:35:10.901Z,21.75
2023-06-23T15:37:40.603Z,21.79
2023-06-23T15:40:12.619Z,21.98
2023-06-23T15:42:44.683Z,22.19
2023-06-23T15:45:13.284Z,22.17
2023-06-23T15:47:41.202Z,22.21
2023-06-23T15:50:09.641Z,22.21
2023-06-23T15:52:37.589Z,22.25
2023-06-23T15:55:07.655Z,22.21
2023-06-23T15:57:35.407Z,22.25
2023-06-23T16:00:06.362Z,22.33
2023-06-23T16:02:34.241Z,22.50
2023-06-23T16:05:02.770Z,22.58
2023-06-23T16:07:30.807Z,22.60
2023-06-23T16:10:02.705Z,22.56
2023-06-23T16:12:30.461Z,22.58
2023-06-23T16:15:00.696Z,22.54
2023-06-23T16:17:30.194Z,22.46
2023-06-23T16:19:58.072Z,22.42
2023-06-23T16:22:25.923Z,22.40
2023-06-23T16:24:53.698Z,22.37
2023-06-23T16:27:21.592Z,22.30
2023-06-23T16:29:49.474Z,22.26
2023-06-23T16:32:17.566Z,22.20
2023-06-23T16:34:47.125Z,22.17
2023-06-23T16:37:15.050Z,22.12
2023-06-23T16:39:43.647Z,22.13
2023-06-23T16:42:11.671Z,22.10
2023-06-23T16:44:41.900Z,22.10
2023-06-23T16:47:10.533Z,22.10
2023-06-23T16:49:38.491Z,22.10
2023-06-23T16:52:09.541Z,22.07
2023-06-23T16:54:38.969Z,22.08
2023-06-23T16:57:09.899Z,22.05
2023-06-23T16:59:38.554Z,22.06
2023-06-23T17:02:07.682Z,22.07
2023-06-23T17:04:37.965Z,22.10
2023-06-23T17:07:07.888Z,22.09
2023-06-23T17:09:35.981Z,22.07
2023-06-23T17:12:17.867Z,22.05
2023-06-23T17:14:47.623Z,22.04
2023-06-23T17:17:15.738Z,22.02
2023-06-23T17:19:43.843Z,22.04
2023-06-23T17:22:14.771Z,22.01
2023-06-23T17:24:43.925Z,22.01
2023-06-23T17:27:11.662Z,21.99
2023-06-23T17:29:39.416Z,21.97
2023-06-23T17:32:09.396Z,21.98
2023-06-23T17:34:37.221Z,21.94
2023-06-23T17:37:05.746Z,21.94
2023-06-23T17:39:35.074Z,21.95
2023-06-23T17:42:02.906Z,21.93
2023-06-23T17:44:31.075Z,21.94
2023-06-23T17:47:01.013Z,21.94
2023-06-23T17:49:29.960Z,21.92
2023-06-23T17:51:57.971Z,21.90
2023-06-23T17:54:25.814Z,21.91
2023-06-23T17:56:55.321Z,21.91
2023-06-23T17:59:23.595Z,21.90
2023-06-23T18:01:51.704Z,21.90
2023-06-23T18:04:19.676Z,21.92
2023-06-23T18:06:47.533Z,21.91
2023-06-23T18:09:15.539Z,21.92
2023-06-23T18:11:45.083Z,21.92
2023-06-23T18:14:14.727Z,21.92
2023-06-23T18:16:43.064Z,21.91
2023-06-23T18:19:10.959Z,21.91
2023-06-23T18:21:38.935Z,21.93
2023-06-23T18:24:08.316Z,21.91
2023-06-23T18:26:36.250Z,21.90
2023-06-23T18:29:04.097Z,21.87
2023-06-23T18:31:33.361Z,21.89
2023-06-23T18:34:01.601Z,21.90
2023-06-23T18:36:29.570Z,21.89
2023-06-23T18:38:57.670Z,21.88
2023-06-23T18:41:25.744Z,21.89
2023-06-23T18:43:54.922Z,21.87
2023-06-23T18:46:24.032Z,21.85
2023-06-23T18:48:53.946Z,21.81
2023-06-23T18:51:22.101Z,21.80
2023-06-23T18:53:50.240Z,21.81
2023-06-23T18:56:18.239Z,21.85
2023-06-23T18:58:49.622Z,21.88
2023-06-23T19:01:17.626Z,21.87
2023-06-23T19:03:46.240Z,21.78
2023-06-23T19:06:17.144Z,21.72
2023-06-23T19:08:44.930Z,21.64
2023-06-23T19:11:12.678Z,21.61
2023-06-23T19:13:40.661Z,21.58
2023-06-23T19:16:08.398Z,21.54
2023-06-23T19:18:36.334Z,21.52
2023-06-23T19:21:04.678Z,21.47
2023-06-23T19:23:33.846Z,21.40
2023-06-23T19:26:01.643Z,21.36
2023-06-23T19:28:29.709Z,21.33
2023-06-23T19:30:58.683Z,21.28
2023-06-23T19:33:26.519Z,21.23
2023-06-23T19:35:54.536Z,21.18
2023-06-23T19:38:22.338Z,21.16
2023-06-23T19:40:51.941Z,21.08
2023-06-23T19:43:22.200Z,21.04
2023-06-23T19:45:51.172Z,21.01
2023-06-23T19:48:21.377Z,20.99
2023-06-23T19:50:49.737Z,20.94
2023-06-23T19:53:17.570Z,20.92
2023-06-23T19:55:46.407Z,20.92
2023-06-23T19:58:19.792Z,20.84
2023-06-23T20:00:48.204Z,20.78
2023-06-23T20:03:16.131Z,20.73
2023-06-23T20:05:44.505Z,20.71
2023-06-23T20:08:12.538Z,20.73
2023-06-23T20:10:40.602Z,20.69
2023-06-23T20:13:09.694Z,20.67
2023-06-23T20:15:38.958Z,20.65
2023-06-23T20:18:07.129Z,20.61
2023-06-23T20:20:35.600Z,20.60
2023-06-23T20:23:05.713Z,20.57
2023-06-23T20:25:33.675Z,20.55
2023-06-23T20:28:01.561Z,20.56
2023-06-23T20:30:30.161Z,20.57
2023-06-23T20:32:59.379Z,20.52
2023-06-23T20:35:27.529Z,20.46
2023-06-23T20:37:55.675Z,20.44
2023-06-23T20:40:23.616Z,20.43
2023-06-23T20:42:52.859Z,20.39
2023-06-23T20:45:21.415Z,20.35
2023-06-23T20:47:51.430Z,20.38
2023-06-23T20:50:21.110Z,20.43
2023-06-23T20:52:49.230Z,20.51
2023-06-23T20:55:18.839Z,20.54
2023-06-23T20:57:46.718Z,20.56
2023-06-23T21:00:15.482Z,20.47
2023-06-23T21:02:43.369Z,20.40
2023-06-23T21:05:11.239Z,20.25
2023-06-23T21:07:40.704Z,20.20
2023-06-23T21:10:23.669Z,20.16
2023-06-23T21:12:56.382Z,20.17
2023-06-23T21:15:25.893Z,20.16
2023-06-23T21:17:54.577Z,20.11
2023-06-23T21:20:26.479Z,20.05
2023-06-23T21:22:56.702Z,20.05
2023-06-23T21:25:24.487Z,19.91
2023-06-23T21:27:52.308Z,19.86
2023-06-23T21:30:20.113Z,19.84
2023-06-23T21:32:48.200Z,19.81
2023-06-23T21:35:16.121Z,19.76
2023-06-23T21:37:46.115Z,19.76
2023-06-23T21:40:18.728Z,19.78
2023-06-23T21:42:47.139Z,19.78
2023-06-23T21:45:15.163Z,19.75
2023-06-23T21:47:42.952Z,19.79
2023-06-23T21:50:13.696Z,19.83
2023-06-23T21:52:42.017Z,19.84
2023-06-23T21:55:11.429Z,19.75
2023-06-23T21:57:41.852Z,19.72
2023-06-23T22:00:11.213Z,19.66
2023-06-23T22:02:39.304Z,19.60
2023-06-23T22:05:07.120Z,19.61
2023-06-23T22:07:35.054Z,19.63
2023-06-23T22:10:03.117Z,19.59
2023-06-23T22:12:32.732Z,19.57
2023-06-23T22:15:01.968Z,19.59
2023-06-23T22:17:31.013Z,19.59
2023-06-23T22:19:59.737Z,19.53
2023-06-23T22:22:29.765Z,19.53
2023-06-23T22:24:57.898Z,19.52
2023-06-23T22:27:29.774Z,19.43
2023-06-23T22:29:58.262Z,19.41
2023-06-23T22:32:27.867Z,19.42
2023-06-23T22:34:57.217Z,19.39
2023-06-23T22:37:24.980Z,19.40
2023-06-23T22:39:52.732Z,19.34
2023-06-23T22:42:20.748Z,19.31
2023-06-23T22:44:49.350Z,19.33
2023-06-23T22:47:20.574Z,19.28
2023-06-23T22:49:50.029Z,19.23
2023-06-23T22:52:17.951Z,19.22
2023-06-23T22:54:45.994Z,19.20
2023-06-23T22:57:14.205Z,19.16
2023-06-23T22:59:42.093Z,19.18
2023-06-23T23:02:10.087Z,19.22
2023-06-23T23:04:37.890Z,19.21
2023-06-23T23:07:09.089Z,19.19
2023-06-23T23:09:37.968Z,19.15
2023-06-23T23:12:06.618Z,19.11
2023-06-23T23:14:34.896Z,19.06
2023-06-23T23:17:03.938Z,19.05
2023-06-23T23:19:32.244Z,19.04
2023-06-23T23:22:00.536Z,19.03
2023-06-23T23:24:29.687Z,19.01
2023-06-23T23:27:00.541Z,19.02
2023-06-23T23:29:28.809Z,18.93
2023-06-23T23:31:58.470Z,18.95
2023-06-23T23:34:32.997Z,18.98
2023-06-23T23:37:01.344Z,18.97
2023-06-23T23:39:30.847Z,18.96
2023-06-23T23:41:59.141Z,18.94
2023-06-23T23:44:27.506Z,18.89
2023-06-23T23:46:55.703Z,18.91
2023-06-23T23:49:27.586Z,18.93
2023-06-23T23:51:57.537Z,18.88
2023-06-23T23:54:25.436Z,18.89
2023-06-23T23:56:55.106Z,18.88
2023-06-23T23:59:23.232Z,18.80
